createdAt,value
2019-01-06T00:00:52.633Z,100248.17
2019-01-06T00:03:45.044Z,100250.69
2019-01-06T00:06:31.486Z,100246.75
2019-01-06T00:09:16.634Z,100249.80
2019-01-06T00:12:06.602Z,100232.53
2019-01-06T00:14:43.600Z,100245.16
2019-01-06T00:17:36.451Z,100231.82
2019-01-06T00:20:21.358Z,100238.48
2019-01-06T00:23:00.670Z,100236.26
2019-01-06T00:25:46.240Z,100233.03
2019-01-06T00:28:38.563Z,100229.59
2019-01-06T00:31:23.942Z,100226.25
2019-01-06T00:34:08.911Z,100228.70
2019-01-06T00:37:11.260Z,100226.56
2019-01-06T00:39:56.369Z,100230.82
2019-01-06T00:42:35.716Z,100235.44
2019-01-06T00:45:17.656Z,100234.77
2019-01-06T00:48:22.341Z,100232.42
2019-01-06T00:51:06.816Z,100237.28
2019-01-06T00:53:52.083Z,100245.44
2019-01-06T00:56:50.739Z,100257.67
2019-01-06T00:59:31.427Z,100269.66
2019-01-06T01:02:16.151Z,100261.50
2019-01-06T01:05:01.297Z,100268.95
2019-01-06T01:07:46.496Z,100253.92
2019-01-06T01:10:45.151Z,100253.73
2019-01-06T01:13:30.195Z,100256.55
2019-01-06T01:16:22.496Z,100258.17
2019-01-06T01:19:14.679Z,100260.91
2019-01-06T01:22:01.316Z,100271.30
2019-01-06T01:24:46.455Z,100266.86
2019-01-06T01:27:38.904Z,100264.13
2019-01-06T01:30:29.791Z,100258.56
2019-01-06T01:33:28.449Z,100264.73
2019-01-06T01:36:14.811Z,100274.31
2019-01-06T01:39:19.320Z,100281.29
2019-01-06T01:41:57.501Z,100279.67
2019-01-06T01:45:03.512Z,100284.42
2019-01-06T01:47:48.378Z,100293.39
2019-01-06T01:50:34.536Z,100294.92
2019-01-06T01:53:19.748Z,100295.31
2019-01-06T01:56:06.457Z,100297.13
2019-01-06T01:58:52.801Z,100290.88
2019-01-06T02:01:37.720Z,100289.67
2019-01-06T02:04:23.065Z,100288.64
2019-01-06T02:07:08.946Z,100292.58
2019-01-06T02:09:52.865Z,100281.90
2019-01-06T02:12:39.604Z,100277.25
2019-01-06T02:15:26.300Z,100287.75
2019-01-06T02:18:27.930Z,100286.94
2019-01-06T02:21:12.102Z,100295.30
2019-01-06T02:24:00.344Z,100302.38
2019-01-06T02:26:45.531Z,100301.27
2019-01-06T02:29:28.948Z,100304.20
2019-01-06T02:32:21.623Z,100310.88
2019-01-06T02:35:07.590Z,100311.98
2019-01-06T02:37:45.303Z,100311.87
2019-01-06T02:40:30.482Z,100307.94
2019-01-06T02:43:22.187Z,100307.44
2019-01-06T02:46:09.495Z,100300.88
2019-01-06T02:48:53.578Z,100298.04
2019-01-06T02:51:43.145Z,100303.99
2019-01-06T02:54:28.146Z,100302.45
2019-01-06T02:57:13.203Z,100302.45
2019-01-06T02:59:58.197Z,100302.45
2019-01-06T03:02:44.534Z,100307.64
2019-01-06T03:05:29.673Z,100302.07
2019-01-06T03:08:06.375Z,100299.84
2019-01-06T03:11:04.623Z,100289.06
2019-01-06T03:13:53.876Z,100291.26
2019-01-06T03:16:42.978Z,100291.26
2019-01-06T03:19:27.739Z,100282.39
2019-01-06T03:22:20.299Z,100290.66
2019-01-06T03:25:12.305Z,100287.03
2019-01-06T03:27:57.443Z,100270.69
2019-01-06T03:30:43.809Z,100270.69
2019-01-06T03:33:36.260Z,100280.59
2019-01-06T03:36:38.007Z,100280.77
2019-01-06T03:39:24.785Z,100266.15
2019-01-06T03:42:09.732Z,100266.15
2019-01-06T03:44:57.211Z,100273.10
2019-01-06T03:47:41.891Z,100280.16
2019-01-06T03:50:34.310Z,100274.63
2019-01-06T03:53:19.365Z,100273.60
2019-01-06T03:56:10.511Z,100273.60
2019-01-06T03:58:55.643Z,100274.52
2019-01-06T04:01:51.383Z,100274.52
2019-01-06T04:04:36.372Z,100271.90
2019-01-06T04:07:37.753Z,100265.66
2019-01-06T04:10:22.811Z,100271.69
2019-01-06T04:13:12.670Z,100270.27
2019-01-06T04:15:58.369Z,100264.02
2019-01-06T04:18:43.753Z,100264.02
2019-01-06T04:21:30.509Z,100272.10
2019-01-06T04:24:13.675Z,100272.10
2019-01-06T04:26:54.941Z,100265.11
2019-01-06T04:29:40.077Z,100265.11
2019-01-06T04:32:38.908Z,100265.72
2019-01-06T04:35:32.441Z,100259.87
2019-01-06T04:38:27.782Z,100259.16
2019-01-06T04:41:29.039Z,100263.03
2019-01-06T04:44:29.862Z,100270.18
2019-01-06T04:47:28.193Z,100270.18
2019-01-06T04:50:13.179Z,100265.34
2019-01-06T04:53:17.683Z,100268.06
2019-01-06T04:56:08.969Z,100264.41
2019-01-06T04:58:55.472Z,100254.45
2019-01-06T05:01:47.205Z,100253.03
2019-01-06T05:04:43.824Z,100253.03
2019-01-06T05:07:24.517Z,100248.06
2019-01-06T05:10:13.888Z,100251.89
2019-01-06T05:12:57.879Z,100246.25
2019-01-06T05:15:38.282Z,100256.54
2019-01-06T05:18:27.602Z,100249.20
2019-01-06T05:21:17.051Z,100246.15
2019-01-06T05:24:01.953Z,100245.54
2019-01-06T05:26:48.575Z,100241.50
2019-01-06T05:29:37.815Z,100245.27
2019-01-06T05:32:39.448Z,100250.52
2019-01-06T05:35:27.439Z,100252.61
2019-01-06T05:38:04.952Z,100251.22
2019-01-06T05:41:06.937Z,100251.22
2019-01-06T05:44:04.157Z,100257.23
2019-01-06T05:46:49.439Z,100257.23
2019-01-06T05:49:38.630Z,100254.22
2019-01-06T05:52:34.312Z,100254.22
2019-01-06T05:55:19.082Z,100253.31
2019-01-06T05:58:04.029Z,100253.31
2019-01-06T06:00:52.784Z,100264.41
2019-01-06T06:03:39.552Z,100262.00
2019-01-06T06:06:17.223Z,100261.61
2019-01-06T06:08:59.931Z,100265.23
2019-01-06T06:11:48.990Z,100262.00
2019-01-06T06:14:33.887Z,100268.56
2019-01-06T06:17:22.005Z,100268.06
2019-01-06T06:20:06.763Z,100265.02
2019-01-06T06:22:47.865Z,100268.45
2019-01-06T06:25:35.677Z,100272.11
2019-01-06T06:28:20.376Z,100263.03
2019-01-06T06:31:00.083Z,100263.03
2019-01-06T06:33:44.802Z,100264.13
2019-01-06T06:36:40.494Z,100259.16
2019-01-06T06:39:22.716Z,100269.16
2019-01-06T06:42:08.028Z,100269.16
2019-01-06T06:44:47.385Z,100268.05
2019-01-06T06:47:32.150Z,100261.78
2019-01-06T06:50:17.835Z,100265.42
2019-01-06T06:53:10.382Z,100277.13
2019-01-06T06:55:55.574Z,100277.02
2019-01-06T06:58:40.315Z,100277.02
2019-01-06T07:02:01.616Z,100276.12
2019-01-06T07:05:02.891Z,100279.84
2019-01-06T07:07:47.337Z,100286.69
2019-01-06T07:10:32.262Z,100283.56
2019-01-06T07:13:26.001Z,100300.33
2019-01-06T07:16:22.733Z,100300.36
2019-01-06T07:19:18.057Z,100296.10
2019-01-06T07:22:03.940Z,100310.42
2019-01-06T07:24:59.439Z,100310.42
2019-01-06T07:27:40.493Z,100314.69
2019-01-06T07:30:26.845Z,100319.44
2019-01-06T07:33:11.859Z,100319.44
2019-01-06T07:35:54.709Z,100324.06
2019-01-06T07:38:44.039Z,100324.39
2019-01-06T07:41:30.511Z,100324.39
2019-01-06T07:44:20.036Z,100332.97
2019-01-06T07:47:05.106Z,100332.97
2019-01-06T07:50:03.567Z,100335.59
2019-01-06T07:52:55.926Z,100334.79
2019-01-06T07:55:36.825Z,100343.70
2019-01-06T07:58:32.349Z,100343.56
2019-01-06T08:01:17.139Z,100345.27
2019-01-06T08:03:58.574Z,100354.95
2019-01-06T08:06:45.014Z,100346.34
2019-01-06T08:09:44.723Z,100352.92
2019-01-06T08:12:33.907Z,100358.30
2019-01-06T08:15:20.555Z,100346.47
2019-01-06T08:18:15.844Z,100357.50
2019-01-06T08:20:57.671Z,100362.42
2019-01-06T08:23:46.204Z,100359.20
2019-01-06T08:26:27.312Z,100359.20
2019-01-06T08:29:16.391Z,100366.33
2019-01-06T08:32:03.213Z,100357.66
2019-01-06T08:34:42.682Z,100357.66
2019-01-06T08:37:31.852Z,100363.34
2019-01-06T08:40:19.941Z,100369.50
2019-01-06T08:43:08.543Z,100376.07
2019-01-06T08:45:53.573Z,100380.52
2019-01-06T08:48:42.955Z,100380.50
2019-01-06T08:51:34.187Z,100383.84
2019-01-06T08:54:23.459Z,100387.80
2019-01-06T08:57:08.601Z,100389.22
2019-01-06T08:59:53.531Z,100390.14
2019-01-06T09:02:51.523Z,100392.95
2019-01-06T09:05:43.431Z,100383.84
2019-01-06T09:08:24.895Z,100392.52
2019-01-06T09:11:26.410Z,100392.52
2019-01-06T09:14:19.339Z,100400.52
2019-01-06T09:17:20.809Z,100402.05
2019-01-06T09:20:05.585Z,100402.05
2019-01-06T09:23:03.224Z,100400.63
2019-01-06T09:25:48.546Z,100399.51
2019-01-06T09:28:33.726Z,100399.51
2019-01-06T09:31:23.384Z,100399.93
2019-01-06T09:34:15.638Z,100399.84
2019-01-06T09:37:25.342Z,100398.53
2019-01-06T09:40:14.543Z,100402.68
2019-01-06T09:42:56.909Z,100401.55
2019-01-06T09:45:41.972Z,100399.03
2019-01-06T09:48:40.991Z,100402.16
2019-01-06T09:51:30.185Z,100411.17
2019-01-06T09:54:15.410Z,100407.63
2019-01-06T09:56:57.412Z,100416.21
2019-01-06T09:59:58.386Z,100411.27
2019-01-06T10:02:41.134Z,100408.83
2019-01-06T10:05:26.057Z,100414.80
2019-01-06T10:08:11.187Z,100414.80
2019-01-06T10:11:07.435Z,100409.86
2019-01-06T10:13:59.993Z,100416.92
2019-01-06T10:16:50.112Z,100408.12
2019-01-06T10:19:35.507Z,100403.09
2019-01-06T10:22:21.022Z,100407.31
2019-01-06T10:25:07.498Z,100391.38
2019-01-06T10:27:48.178Z,100389.45
2019-01-06T10:30:34.728Z,100387.33
2019-01-06T10:33:19.365Z,100390.05
2019-01-06T10:36:07.914Z,100391.47
2019-01-06T10:38:58.283Z,100389.02
2019-01-06T10:41:41.112Z,100396.62
2019-01-06T10:44:33.121Z,100394.48
2019-01-06T10:47:31.391Z,100395.30
2019-01-06T10:50:16.756Z,100388.13
2019-01-06T10:53:01.848Z,100390.44
2019-01-06T10:55:46.729Z,100391.48
2019-01-06T10:58:33.338Z,100391.48
2019-01-06T11:01:28.808Z,100395.08
2019-01-06T11:04:23.353Z,100396.61
2019-01-06T11:07:28.140Z,100390.77
2019-01-06T11:10:17.266Z,100402.70
2019-01-06T11:13:06.511Z,100390.55
2019-01-06T11:15:47.570Z,100391.76
2019-01-06T11:18:33.973Z,100392.97
2019-01-06T11:21:32.300Z,100394.28
2019-01-06T11:24:17.570Z,100393.18
2019-01-06T11:27:16.302Z,100388.13
2019-01-06T11:30:08.962Z,100392.18
2019-01-06T11:32:53.922Z,100382.56
2019-01-06T11:35:40.196Z,100393.88
2019-01-06T11:38:25.150Z,100393.98
2019-01-06T11:41:10.203Z,100388.62
2019-01-06T11:43:50.552Z,100392.06
2019-01-06T11:46:35.524Z,100389.34
2019-01-06T11:49:27.731Z,100382.55
2019-01-06T11:52:12.754Z,100382.64
2019-01-06T11:54:57.931Z,100384.56
2019-01-06T11:57:43.251Z,100380.23
2019-01-06T12:00:41.641Z,100388.90
2019-01-06T12:03:26.565Z,100389.31
2019-01-06T12:06:31.512Z,100386.48
2019-01-06T12:09:20.913Z,100380.20
2019-01-06T12:12:01.960Z,100379.19
2019-01-06T12:14:54.060Z,100374.65
2019-01-06T12:17:40.822Z,100379.70
2019-01-06T12:20:30.151Z,100378.31
2019-01-06T12:23:24.380Z,100379.19
2019-01-06T12:26:19.074Z,100382.13
2019-01-06T12:29:04.235Z,100376.28
2019-01-06T12:32:04.657Z,100379.30
2019-01-06T12:34:49.851Z,100382.84
2019-01-06T12:37:48.078Z,100379.08
2019-01-06T12:40:31.959Z,100384.34
2019-01-06T12:43:16.868Z,100381.82
2019-01-06T12:46:00.406Z,100384.35
2019-01-06T12:48:45.666Z,100387.20
2019-01-06T12:51:28.979Z,100393.14
2019-01-06T12:54:21.182Z,100396.27
2019-01-06T12:57:08.370Z,100397.38
2019-01-06T12:59:54.886Z,100397.11
2019-01-06T13:02:40.236Z,100396.89
2019-01-06T13:05:25.505Z,100400.13
2019-01-06T13:08:12.046Z,100405.98
2019-01-06T13:10:56.238Z,100402.14
2019-01-06T13:13:41.460Z,100413.17
2019-01-06T13:16:30.705Z,100406.21
2019-01-06T13:19:16.900Z,100417.04
2019-01-06T13:21:59.310Z,100415.20
2019-01-06T13:24:42.895Z,100413.09
2019-01-06T13:27:29.402Z,100420.66
2019-01-06T13:30:12.573Z,100419.94
2019-01-06T13:33:01.655Z,100423.99
2019-01-06T13:36:00.308Z,100424.38
2019-01-06T13:38:42.016Z,100429.84
2019-01-06T13:41:27.195Z,100429.46
2019-01-06T13:44:12.114Z,100437.84
2019-01-06T13:47:01.456Z,100437.95
2019-01-06T13:49:46.642Z,100434.90
2019-01-06T13:52:31.889Z,100444.30
2019-01-06T13:55:24.290Z,100444.30
2019-01-06T13:58:09.450Z,100448.14
2019-01-06T14:00:47.097Z,100448.36
2019-01-06T14:03:44.851Z,100448.57
2019-01-06T14:06:37.490Z,100452.52
2019-01-06T14:09:23.346Z,100455.85
2019-01-06T14:12:09.574Z,100449.95
2019-01-06T14:14:56.324Z,100451.27
2019-01-06T14:17:52.925Z,100454.72
2019-01-06T14:20:39.466Z,100451.91
2019-01-06T14:23:29.019Z,100448.96
2019-01-06T14:26:24.393Z,100458.16
2019-01-06T14:29:13.406Z,100457.84
2019-01-06T14:32:02.852Z,100461.28
2019-01-06T14:35:00.964Z,100455.42
2019-01-06T14:37:53.815Z,100460.58
2019-01-06T14:40:48.855Z,100456.95
2019-01-06T14:43:38.112Z,100465.73
2019-01-06T14:46:24.486Z,100469.77
2019-01-06T14:49:10.736Z,100459.16
2019-01-06T14:52:00.160Z,100470.59
2019-01-06T14:54:45.319Z,100469.88
2019-01-06T14:57:50.233Z,100473.43
2019-01-06T15:00:35.508Z,100471.91
2019-01-06T15:03:22.065Z,100473.93
2019-01-06T15:06:17.461Z,100475.34
2019-01-06T15:08:56.889Z,100484.22
2019-01-06T15:11:58.607Z,100474.84
2019-01-06T15:14:43.339Z,100480.50
2019-01-06T15:17:28.640Z,100481.81
2019-01-06T15:20:24.112Z,100480.00
2019-01-06T15:23:08.836Z,100480.00
2019-01-06T15:26:04.314Z,100479.88
2019-01-06T15:28:59.828Z,100476.43
2019-01-06T15:31:53.548Z,100482.72
2019-01-06T15:34:46.943Z,100483.20
2019-01-06T15:37:36.108Z,100488.08
2019-01-06T15:40:22.190Z,100490.78
2019-01-06T15:43:17.726Z,100491.09
2019-01-06T15:46:02.622Z,100494.82
2019-01-06T15:49:07.725Z,100485.94
2019-01-06T15:52:06.232Z,100492.09
2019-01-06T15:54:44.217Z,100488.06
2019-01-06T15:57:33.695Z,100498.35
2019-01-06T16:00:18.720Z,100501.91
2019-01-06T16:03:20.234Z,100498.92
2019-01-06T16:06:25.031Z,100494.61
2019-01-06T16:09:12.378Z,100495.33
2019-01-06T16:11:57.597Z,100499.94
2019-01-06T16:14:53.022Z,100501.45
2019-01-06T16:17:40.719Z,100505.52
2019-01-06T16:20:29.813Z,100506.01
2019-01-06T16:23:15.024Z,100505.28
2019-01-06T16:26:03.263Z,100505.40
2019-01-06T16:28:48.216Z,100511.45
2019-01-06T16:31:34.559Z,100513.39
2019-01-06T16:34:21.357Z,100516.03
2019-01-06T16:37:19.937Z,100517.23
2019-01-06T16:40:06.328Z,100506.59
2019-01-06T16:42:52.803Z,100508.25
2019-01-06T16:45:34.164Z,100509.58
2019-01-06T16:48:20.620Z,100506.34
2019-01-06T16:51:04.896Z,100506.34
2019-01-06T16:54:01.810Z,100508.66
2019-01-06T16:57:03.880Z,100509.98
2019-01-06T16:59:48.910Z,100511.61
2019-01-06T17:02:33.895Z,100512.49
2019-01-06T17:05:27.781Z,100509.08
2019-01-06T17:08:29.532Z,100511.87
2019-01-06T17:11:30.675Z,100505.17
2019-01-06T17:14:15.687Z,100505.30
2019-01-06T17:17:12.126Z,100494.80
2019-01-06T17:19:57.532Z,100502.90
2019-01-06T17:22:43.902Z,100500.17
2019-01-06T17:25:44.557Z,100509.48
2019-01-06T17:28:29.384Z,100506.59
2019-01-06T17:31:33.791Z,100503.12
2019-01-06T17:34:18.559Z,100503.12
2019-01-06T17:37:23.079Z,100512.93
2019-01-06T17:40:16.707Z,100507.36
2019-01-06T17:42:56.290Z,100509.72
2019-01-06T17:45:58.108Z,100516.98
2019-01-06T17:49:00.868Z,100504.23
2019-01-06T17:51:44.337Z,100513.84
2019-01-06T17:54:28.056Z,100521.00
2019-01-06T17:57:23.717Z,100525.03
2019-01-06T18:00:03.153Z,100520.48
2019-01-06T18:02:48.045Z,100531.92
2019-01-06T18:05:32.890Z,100528.56
2019-01-06T18:08:18.204Z,100530.17
2019-01-06T18:10:58.604Z,100529.70
2019-01-06T18:13:43.739Z,100538.09
2019-01-06T18:16:29.100Z,100532.73
2019-01-06T18:19:15.543Z,100538.08
2019-01-06T18:22:02.082Z,100538.08
2019-01-06T18:24:47.272Z,100538.66
2019-01-06T18:27:33.686Z,100538.40
2019-01-06T18:30:35.105Z,100536.53
2019-01-06T18:33:20.407Z,100542.92
2019-01-06T18:36:06.993Z,100540.94
2019-01-06T18:38:53.708Z,100543.23
2019-01-06T18:41:55.371Z,100541.17
2019-01-06T18:44:35.372Z,100541.17
2019-01-06T18:47:42.758Z,100538.25
2019-01-06T18:50:41.246Z,100545.77
2019-01-06T18:53:39.733Z,100547.17
2019-01-06T18:56:29.118Z,100549.16
2019-01-06T18:59:21.301Z,100546.48
2019-01-06T19:02:07.034Z,100546.68
2019-01-06T19:04:59.318Z,100545.34
2019-01-06T19:07:48.801Z,100546.08
2019-01-06T19:10:40.963Z,100547.89
2019-01-06T19:13:27.176Z,100554.64
2019-01-06T19:16:12.136Z,100549.48
2019-01-06T19:19:07.571Z,100552.72
2019-01-06T19:22:00.102Z,100546.63
2019-01-06T19:24:45.034Z,100547.03
2019-01-06T19:27:31.552Z,100561.61
2019-01-06T19:30:30.507Z,100561.61
2019-01-06T19:33:16.008Z,100557.17
2019-01-06T19:35:54.825Z,100559.83
2019-01-06T19:38:52.956Z,100558.81
2019-01-06T19:41:38.023Z,100560.83
2019-01-06T19:44:23.150Z,100566.87
2019-01-06T19:47:02.091Z,100568.36
2019-01-06T19:49:47.094Z,100568.58
2019-01-06T19:52:29.902Z,100567.41
2019-01-06T19:55:34.509Z,100572.75
2019-01-06T19:58:27.161Z,100569.75
2019-01-06T20:01:12.103Z,100565.73
2019-01-06T20:04:12.867Z,100569.21
2019-01-06T20:07:11.154Z,100564.81
2019-01-06T20:09:57.560Z,100564.81
2019-01-06T20:12:55.968Z,100561.55
2019-01-06T20:15:41.804Z,100558.72
2019-01-06T20:18:34.017Z,100565.77
2019-01-06T20:21:23.136Z,100568.59
2019-01-06T20:24:11.267Z,100562.03
2019-01-06T20:27:00.386Z,100577.00
2019-01-06T20:29:50.489Z,100560.77
2019-01-06T20:32:35.831Z,100575.16
2019-01-06T20:35:21.340Z,100573.31
2019-01-06T20:38:26.582Z,100576.30
2019-01-06T20:41:06.496Z,100576.50
2019-01-06T20:44:11.600Z,100576.50
2019-01-06T20:47:09.629Z,100575.85
2019-01-06T20:50:14.151Z,100575.85
2019-01-06T20:53:09.831Z,100578.92
2019-01-06T20:56:04.991Z,100574.20
2019-01-06T20:58:51.376Z,100580.16
2019-01-06T21:01:47.103Z,100578.88
2019-01-06T21:04:32.274Z,100579.17
2019-01-06T21:07:15.727Z,100576.98
2019-01-06T21:10:17.158Z,100580.92
2019-01-06T21:13:02.524Z,100584.05
2019-01-06T21:16:05.441Z,100582.64
2019-01-06T21:18:50.909Z,100583.94
2019-01-06T21:21:43.553Z,100586.85
2019-01-06T21:24:28.932Z,100581.77
2019-01-06T21:27:11.863Z,100586.14
2019-01-06T21:30:04.506Z,100588.52
2019-01-06T21:32:49.827Z,100581.97
2019-01-06T21:35:44.692Z,100581.97
2019-01-06T21:38:50.239Z,100588.56
2019-01-06T21:41:52.009Z,100582.70
2019-01-06T21:44:36.976Z,100588.69
2019-01-06T21:47:22.125Z,100588.69
2019-01-06T21:50:17.336Z,100597.75
2019-01-06T21:53:05.619Z,100594.52
2019-01-06T21:55:50.963Z,100599.14
2019-01-06T21:58:38.317Z,100600.20
2019-01-06T22:01:37.265Z,100598.08
2019-01-06T22:04:20.689Z,100593.08
2019-01-06T22:07:08.750Z,100595.98
2019-01-06T22:09:55.364Z,100588.31
2019-01-06T22:12:50.557Z,100590.58
2019-01-06T22:15:44.342Z,100590.28
2019-01-06T22:18:39.566Z,100593.41
2019-01-06T22:21:25.141Z,100599.06
2019-01-06T22:24:04.302Z,100590.94
2019-01-06T22:26:46.173Z,100578.19
2019-01-06T22:29:34.475Z,100587.75
2019-01-06T22:32:27.063Z,100594.67
2019-01-06T22:35:25.490Z,100591.52
2019-01-06T22:38:17.846Z,100588.89
2019-01-06T22:40:56.082Z,100579.79
2019-01-06T22:43:54.319Z,100579.79
2019-01-06T22:46:32.264Z,100581.52
2019-01-06T22:49:16.898Z,100583.03
2019-01-06T22:51:52.980Z,100583.32
2019-01-06T22:54:48.433Z,100584.50
2019-01-06T22:57:33.178Z,100584.88
2019-01-06T23:00:31.635Z,100580.45
2019-01-06T23:03:26.874Z,100579.91
2019-01-06T23:06:24.985Z,100583.72
2019-01-06T23:09:09.873Z,100579.78
2019-01-06T23:12:01.222Z,100579.01
2019-01-06T23:15:02.658Z,100579.01
2019-01-06T23:17:47.452Z,100586.27
2019-01-06T23:20:33.327Z,100576.09
2019-01-06T23:23:28.757Z,100570.56
2019-01-06T23:26:32.959Z,100568.95
2019-01-06T23:29:22.084Z,100568.95
2019-01-06T23:32:08.555Z,100576.55
2019-01-06T23:34:47.646Z,100576.55
2019-01-06T23:37:34.015Z,100569.00
2019-01-06T23:40:27.173Z,100568.68
2019-01-06T23:43:17.985Z,100569.16
2019-01-06T23:46:16.748Z,100574.08
2019-01-06T23:49:10.185Z,100555.59
2019-01-06T23:51:59.132Z,100555.59
2019-01-06T23:54:44.285Z,100561.34
2019-01-06T23:57:41.267Z,100559.04
